createdAt,value
2022-07-26T00:02:07.977Z,98076.78
2022-07-26T00:04:37.146Z,98081.06
2022-07-26T00:07:06.033Z,98076.44
2022-07-26T00:09:34.522Z,98071.66
2022-07-26T00:12:03.587Z,98072.44
2022-07-26T00:14:32.529Z,98072.53
2022-07-26T00:17:03.104Z,98067.78
2022-07-26T00:19:31.889Z,98069.53
2022-07-26T00:22:18.166Z,98064.56
2022-07-26T00:24:47.085Z,98074.50
2022-07-26T00:27:15.837Z,98069.28
2022-07-26T00:29:44.498Z,98072.19
2022-07-26T00:32:15.036Z,98069.63
2022-07-26T00:34:43.854Z,98064.22
2022-07-26T00:37:15.965Z,98062.66
2022-07-26T00:39:48.510Z,98063.44
2022-07-26T00:42:17.768Z,98064.66
2022-07-26T00:44:47.616Z,98062.38
2022-07-26T00:47:17.852Z,98065.16
2022-07-26T00:49:46.812Z,98056.28
2022-07-26T00:52:17.159Z,98058.28
2022-07-26T00:54:46.905Z,98050.41
2022-07-26T00:57:16.327Z,98058.38
2022-07-26T00:59:45.124Z,98054.50
2022-07-26T01:02:14.136Z,98060.03
2022-07-26T01:04:47.069Z,98052.75
2022-07-26T01:07:16.590Z,98054.16
2022-07-26T01:09:46.602Z,98053.47
2022-07-26T01:12:15.748Z,98055.56
2022-07-26T01:14:45.430Z,98052.78
2022-07-26T01:17:15.242Z,98054.44
2022-07-26T01:19:45.860Z,98051.59
2022-07-26T01:22:16.287Z,98049.06
2022-07-26T01:24:45.072Z,98053.69
2022-07-26T01:27:13.754Z,98044.78
2022-07-26T01:29:42.601Z,98048.44
2022-07-26T01:32:11.259Z,98046.19
2022-07-26T01:34:40.334Z,98054.91
2022-07-26T01:37:09.454Z,98054.91
2022-07-26T01:39:39.800Z,98059.50
2022-07-26T01:42:08.820Z,98057.59
2022-07-26T01:44:37.665Z,98060.81
2022-07-26T01:47:06.628Z,98066.34
2022-07-26T01:49:35.756Z,98064.78
2022-07-26T01:52:04.942Z,98062.78
2022-07-26T01:54:33.748Z,98058.38
2022-07-26T01:57:03.913Z,98069.94
2022-07-26T01:59:32.920Z,98077.88
2022-07-26T02:02:02.227Z,98076.66
2022-07-26T02:04:48.215Z,98075.81
2022-07-26T02:07:16.934Z,98080.53
2022-07-26T02:09:45.882Z,98081.69
2022-07-26T02:12:18.252Z,98083.03
2022-07-26T02:14:47.032Z,98083.22
2022-07-26T02:17:15.892Z,98078.56
2022-07-26T02:19:44.822Z,98077.00
2022-07-26T02:22:13.612Z,98078.13
2022-07-26T02:24:42.402Z,98077.25
2022-07-26T02:27:11.115Z,98076.50
2022-07-26T02:29:41.335Z,98079.66
2022-07-26T02:32:11.282Z,98088.97
2022-07-26T02:34:40.221Z,98081.66
2022-07-26T02:37:09.432Z,98085.47
2022-07-26T02:39:38.094Z,98091.56
2022-07-26T02:42:06.905Z,98086.19
2022-07-26T02:44:36.085Z,98086.06
2022-07-26T02:47:06.817Z,98090.19
2022-07-26T02:49:35.610Z,98092.72
2022-07-26T02:52:07.198Z,98094.63
2022-07-26T02:54:36.101Z,98099.25
2022-07-26T02:57:05.013Z,98100.34
2022-07-26T02:59:33.650Z,98104.13
2022-07-26T03:02:02.524Z,98103.13
2022-07-26T03:04:32.652Z,98112.44
2022-07-26T03:07:01.537Z,98114.22
2022-07-26T03:09:31.186Z,98106.16
2022-07-26T03:11:59.817Z,98109.06
2022-07-26T03:14:28.787Z,98117.81
2022-07-26T03:16:57.669Z,98120.47
2022-07-26T03:19:26.321Z,98115.03
2022-07-26T03:21:56.813Z,98116.06
2022-07-26T03:24:25.635Z,98122.84
2022-07-26T03:26:54.366Z,98125.41
2022-07-26T03:29:23.076Z,98120.09
2022-07-26T03:31:52.113Z,98119.84
2022-07-26T03:34:20.889Z,98119.28
2022-07-26T03:36:49.703Z,98124.28
2022-07-26T03:39:19.919Z,98129.94
2022-07-26T03:41:48.578Z,98127.03
2022-07-26T03:44:17.720Z,98133.47
2022-07-26T03:46:46.950Z,98126.91
2022-07-26T03:49:17.255Z,98121.47
2022-07-26T03:51:46.461Z,98123.13
2022-07-26T03:54:15.296Z,98122.44
2022-07-26T03:56:44.535Z,98120.88
2022-07-26T03:59:13.455Z,98123.78
2022-07-26T04:01:43.729Z,98120.63
2022-07-26T04:04:14.518Z,98126.03
2022-07-26T04:06:44.639Z,98125.00
2022-07-26T04:09:14.631Z,98121.47
2022-07-26T04:11:45.419Z,98124.31
2022-07-26T04:14:13.982Z,98123.88
2022-07-26T04:16:43.793Z,98130.75
2022-07-26T04:19:12.969Z,98124.50
2022-07-26T04:21:42.141Z,98131.34
2022-07-26T04:24:11.856Z,98127.75
2022-07-26T04:26:40.929Z,98119.59
2022-07-26T04:29:12.896Z,98120.66
2022-07-26T04:31:41.917Z,98123.00
2022-07-26T04:34:11.262Z,98126.91
2022-07-26T04:36:40.243Z,98121.41
2022-07-26T04:39:09.090Z,98120.69
2022-07-26T04:41:38.005Z,98125.22
2022-07-26T04:44:07.622Z,98122.22
2022-07-26T04:46:38.362Z,98120.91
2022-07-26T04:49:14.158Z,98125.56
2022-07-26T04:51:43.034Z,98125.09
2022-07-26T04:54:12.119Z,98130.53
2022-07-26T04:56:40.975Z,98131.31
2022-07-26T04:59:09.711Z,98132.56
2022-07-26T05:01:39.964Z,98140.78
2022-07-26T05:04:09.231Z,98141.69
2022-07-26T05:06:38.370Z,98139.22
2022-07-26T05:09:07.166Z,98136.56
2022-07-26T05:11:36.131Z,98136.13
2022-07-26T05:14:05.108Z,98127.75
2022-07-26T05:16:34.142Z,98133.63
2022-07-26T05:19:09.838Z,98134.53
2022-07-26T05:21:38.953Z,98133.72
2022-07-26T05:24:08.544Z,98133.63
2022-07-26T05:26:37.660Z,98137.25
2022-07-26T05:29:06.701Z,98137.66
2022-07-26T05:31:35.582Z,98142.53
2022-07-26T05:34:04.992Z,98142.38
2022-07-26T05:36:35.514Z,98143.28
2022-07-26T05:39:04.691Z,98140.13
2022-07-26T05:41:33.590Z,98138.84
2022-07-26T05:44:03.382Z,98143.28
2022-07-26T05:46:32.679Z,98147.38
2022-07-26T05:49:01.566Z,98142.63
2022-07-26T05:51:30.867Z,98137.81
2022-07-26T05:54:01.408Z,98141.16
2022-07-26T05:56:30.302Z,98139.72
2022-07-26T05:58:59.135Z,98141.28
2022-07-26T06:01:30.011Z,98144.19
2022-07-26T06:04:01.887Z,98140.25
2022-07-26T06:06:30.852Z,98142.28
2022-07-26T06:09:01.116Z,98138.63
2022-07-26T06:11:30.351Z,98140.66
2022-07-26T06:13:59.499Z,98145.09
2022-07-26T06:16:28.527Z,98130.56
2022-07-26T06:18:57.652Z,98123.16
2022-07-26T06:21:26.791Z,98126.16
2022-07-26T06:23:55.737Z,98133.34
2022-07-26T06:26:26.201Z,98134.69
2022-07-26T06:28:55.075Z,98139.75
2022-07-26T06:31:24.478Z,98130.22
2022-07-26T06:33:53.380Z,98139.50
2022-07-26T06:36:25.076Z,98131.50
2022-07-26T06:38:56.417Z,98142.59
2022-07-26T06:41:26.755Z,98141.25
2022-07-26T06:43:55.678Z,98138.34
2022-07-26T06:46:24.682Z,98140.38
2022-07-26T06:48:56.783Z,98135.66
2022-07-26T06:51:26.158Z,98137.78
2022-07-26T06:53:54.879Z,98142.56
2022-07-26T06:56:24.027Z,98134.53
2022-07-26T06:58:55.433Z,98133.69
2022-07-26T07:01:59.442Z,98132.09
2022-07-26T07:04:13.298Z,98126.53
2022-07-26T07:06:42.042Z,98132.78
2022-07-26T07:09:11.971Z,98131.59
2022-07-26T07:11:41.618Z,98138.59
2022-07-26T07:14:13.389Z,98133.44
2022-07-26T07:16:42.383Z,98134.72
2022-07-26T07:19:11.177Z,98138.59
2022-07-26T07:21:40.895Z,98125.38
2022-07-26T07:24:10.216Z,98132.00
2022-07-26T07:26:39.307Z,98131.50
2022-07-26T07:29:12.269Z,98129.66
2022-07-26T07:31:48.988Z,98132.50
2022-07-26T07:34:25.713Z,98135.28
2022-07-26T07:36:55.386Z,98136.81
2022-07-26T07:39:27.156Z,98137.09
2022-07-26T07:42:03.806Z,98140.59
2022-07-26T07:44:32.800Z,98139.53
2022-07-26T07:47:03.474Z,98139.44
2022-07-26T07:49:32.719Z,98133.38
2022-07-26T07:52:01.831Z,98136.47
2022-07-26T07:54:32.217Z,98137.47
2022-07-26T07:57:01.633Z,98132.00
2022-07-26T07:59:30.293Z,98133.16
2022-07-26T08:01:59.173Z,98133.84
2022-07-26T08:04:29.745Z,98135.09
2022-07-26T08:06:58.695Z,98135.34
2022-07-26T08:09:28.727Z,98140.31
2022-07-26T08:11:57.794Z,98133.81
2022-07-26T08:14:27.895Z,98141.28
2022-07-26T08:16:57.655Z,98140.84
2022-07-26T08:19:40.919Z,98140.91
2022-07-26T08:22:12.727Z,98145.34
2022-07-26T08:24:45.003Z,98141.75
2022-07-26T08:27:13.634Z,98144.47
2022-07-26T08:29:42.509Z,98144.25
2022-07-26T08:32:12.177Z,98145.97
2022-07-26T08:34:41.302Z,98143.00
2022-07-26T08:37:17.602Z,98145.44
2022-07-26T08:39:47.134Z,98147.56
2022-07-26T08:42:17.469Z,98149.00
2022-07-26T08:44:52.704Z,98140.84
2022-07-26T08:47:35.513Z,98140.75
2022-07-26T08:50:11.819Z,98138.78
2022-07-26T08:52:42.782Z,98145.63
2022-07-26T08:55:12.837Z,98150.88
2022-07-26T08:57:41.760Z,98148.47
2022-07-26T09:00:21.080Z,98153.63
2022-07-26T09:02:50.865Z,98158.34
2022-07-26T09:05:21.286Z,98154.97
2022-07-26T09:07:51.619Z,98151.81
2022-07-26T09:10:21.220Z,98155.41
2022-07-26T09:12:57.628Z,98159.75
2022-07-26T09:15:29.711Z,98160.94
2022-07-26T09:17:59.788Z,98166.22
2022-07-26T09:20:30.513Z,98161.03
2022-07-26T09:23:02.352Z,98163.84
2022-07-26T09:25:33.953Z,98168.44
2022-07-26T09:28:03.212Z,98161.84
2022-07-26T09:30:33.979Z,98156.25
2022-07-26T09:33:05.852Z,98168.28
2022-07-26T09:35:50.968Z,98157.06
2022-07-26T09:38:22.352Z,98163.44
2022-07-26T09:40:51.908Z,98155.91
2022-07-26T09:43:24.329Z,98155.69
2022-07-26T09:46:07.568Z,98151.69
2022-07-26T09:51:40.043Z,98158.88
2022-07-26T09:54:12.050Z,98155.28
2022-07-26T09:56:46.225Z,98150.56
2022-07-26T09:59:17.161Z,98147.09
2022-07-26T10:01:47.250Z,98156.00
2022-07-26T10:04:16.408Z,98156.81
2022-07-26T10:06:45.993Z,98156.44
2022-07-26T10:09:17.944Z,98161.25
2022-07-26T10:11:52.494Z,98155.03
2022-07-26T10:14:42.931Z,98155.44
2022-07-26T10:17:51.178Z,98154.66
2022-07-26T10:20:44.546Z,98159.28
2022-07-26T10:23:43.236Z,98168.41
2022-07-26T10:26:35.334Z,98164.22
2022-07-26T10:29:26.861Z,98155.03
2022-07-26T10:32:20.596Z,98156.19
2022-07-26T10:34:50.103Z,98158.88
2022-07-26T10:37:27.950Z,98153.22
2022-07-26T10:40:20.209Z,98158.72
2022-07-26T10:42:50.552Z,98153.84
2022-07-26T10:45:23.289Z,98146.97
2022-07-26T10:48:12.977Z,98135.03
2022-07-26T10:50:42.864Z,98144.28
2022-07-26T10:53:16.941Z,98133.06
2022-07-26T10:55:51.425Z,98137.91
2022-07-26T10:58:22.473Z,98136.50
2022-07-26T11:00:59.691Z,98136.84
2022-07-26T11:03:38.868Z,98130.59
2022-07-26T11:06:12.964Z,98132.38
2022-07-26T11:08:47.609Z,98130.81
2022-07-26T11:11:30.243Z,98123.44
2022-07-26T11:14:09.296Z,98129.31
2022-07-26T11:16:40.110Z,98121.41
2022-07-26T11:19:17.478Z,98124.13
2022-07-26T11:21:54.192Z,98128.34
2022-07-26T11:24:24.037Z,98124.41
2022-07-26T11:26:53.530Z,98120.34
2022-07-26T11:29:35.714Z,98118.44
2022-07-26T11:32:19.443Z,98123.66
2022-07-26T11:34:58.916Z,98112.38
2022-07-26T11:37:27.870Z,98102.78
2022-07-26T11:39:56.939Z,98107.25
2022-07-26T11:42:25.803Z,98094.16
2022-07-26T11:44:56.309Z,98102.41
2022-07-26T11:47:26.621Z,98103.44
2022-07-26T11:50:18.400Z,98104.38
2022-07-26T11:52:45.480Z,98099.56
2022-07-26T11:55:14.835Z,98093.09
2022-07-26T11:57:43.977Z,98085.53
2022-07-26T12:00:16.383Z,98088.56
2022-07-26T12:02:45.272Z,98079.56
2022-07-26T12:05:16.502Z,98092.63
2022-07-26T12:07:57.331Z,98082.22
2022-07-26T12:10:28.995Z,98087.63
2022-07-26T12:13:12.215Z,98086.50
2022-07-26T12:15:51.117Z,98089.66
2022-07-26T12:18:30.095Z,98085.50
2022-07-26T12:21:05.054Z,98079.53
2022-07-26T12:23:45.959Z,98081.38
2022-07-26T12:26:25.458Z,98082.69
2022-07-26T12:28:55.473Z,98085.84
2022-07-26T12:31:29.086Z,98081.03
2022-07-26T12:33:59.097Z,98080.84
2022-07-26T12:36:29.975Z,98076.31
2022-07-26T12:39:00.953Z,98089.38
2022-07-26T12:41:35.212Z,98077.84
2022-07-26T12:44:06.273Z,98084.97
2022-07-26T12:46:37.881Z,98080.34
2022-07-26T12:49:07.159Z,98075.81
2022-07-26T12:51:37.115Z,98083.81
2022-07-26T12:54:07.597Z,98085.03
2022-07-26T12:56:36.677Z,98078.63
2022-07-26T12:59:05.908Z,98069.34
2022-07-26T13:01:36.701Z,98074.19
2022-07-26T13:04:06.103Z,98065.00
2022-07-26T13:06:34.883Z,98065.88
2022-07-26T13:09:03.948Z,98061.16
2022-07-26T13:11:32.958Z,98059.75
2022-07-26T13:14:02.702Z,98068.97
2022-07-26T13:16:31.700Z,98068.03
2022-07-26T13:19:02.268Z,98070.81
2022-07-26T13:21:33.177Z,98060.63
2022-07-26T13:24:02.871Z,98064.31
2022-07-26T13:26:31.965Z,98071.25
2022-07-26T13:29:01.330Z,98075.00
2022-07-26T13:31:30.555Z,98075.03
2022-07-26T13:33:59.401Z,98073.72
2022-07-26T13:36:30.501Z,98086.22
2022-07-26T13:38:59.820Z,98081.28
2022-07-26T13:41:29.122Z,98088.25
2022-07-26T13:44:00.067Z,98100.75
2022-07-26T13:46:33.571Z,98090.53
2022-07-26T13:49:04.224Z,98092.31
2022-07-26T13:51:56.775Z,98103.06
2022-07-26T13:54:27.458Z,98092.31
2022-07-26T13:56:56.986Z,98091.03
2022-07-26T13:59:25.965Z,98094.84
2022-07-26T14:01:56.034Z,98091.75
2022-07-26T14:04:25.714Z,98093.06
2022-07-26T14:06:56.200Z,98099.44
2022-07-26T14:09:25.096Z,98095.03
2022-07-26T14:11:54.777Z,98098.53
2022-07-26T14:14:33.869Z,98102.59
2022-07-26T14:17:04.608Z,98119.19
2022-07-26T14:19:33.788Z,98115.09
2022-07-26T14:22:09.390Z,98115.75
2022-07-26T14:24:38.843Z,98113.47
2022-07-26T14:27:08.539Z,98113.34
2022-07-26T14:29:38.349Z,98124.09
2022-07-26T14:32:08.470Z,98117.53
2022-07-26T14:34:37.686Z,98113.44
2022-07-26T14:37:41.859Z,98117.59
2022-07-26T14:39:57.842Z,98113.75
2022-07-26T14:42:27.351Z,98117.13
2022-07-26T14:44:56.605Z,98108.66
2022-07-26T14:47:25.798Z,98107.38
2022-07-26T14:49:55.194Z,98119.31
2022-07-26T14:52:26.037Z,98119.31
2022-07-26T14:54:55.200Z,98115.50
2022-07-26T14:57:24.119Z,98113.09
2022-07-26T14:59:53.527Z,98121.81
2022-07-26T15:02:23.063Z,98116.97
2022-07-26T15:04:52.113Z,98119.28
2022-07-26T15:07:21.279Z,98122.38
2022-07-26T15:09:52.345Z,98122.72
2022-07-26T15:12:21.381Z,98116.63
2022-07-26T15:14:50.570Z,98111.47
2022-07-26T15:17:19.687Z,98119.09
2022-07-26T15:19:48.656Z,98111.66
2022-07-26T15:22:18.038Z,98097.31
2022-07-26T15:24:47.087Z,98094.47
2022-07-26T15:27:17.619Z,98097.38
2022-07-26T15:29:48.754Z,98096.72
2022-07-26T15:32:17.426Z,98104.50
2022-07-26T15:34:46.855Z,98112.34
2022-07-26T15:37:15.952Z,98112.34
2022-07-26T15:39:44.975Z,98113.41
2022-07-26T15:42:15.371Z,98111.88
2022-07-26T15:44:45.902Z,98112.19
2022-07-26T15:47:22.036Z,98128.34
2022-07-26T15:50:00.508Z,98123.34
2022-07-26T15:52:29.248Z,98131.63
2022-07-26T15:54:58.410Z,98121.28
2022-07-26T15:57:27.416Z,98126.75
2022-07-26T15:59:59.435Z,98134.31
2022-07-26T16:02:32.042Z,98147.88
2022-07-26T16:05:01.113Z,98150.19
2022-07-26T16:07:30.135Z,98156.22
2022-07-26T16:09:59.110Z,98151.97
2022-07-26T16:12:28.815Z,98163.44
2022-07-26T16:14:59.597Z,98172.97
2022-07-26T16:17:28.597Z,98164.47
2022-07-26T16:19:58.049Z,98170.28
2022-07-26T16:22:27.154Z,98167.69
2022-07-26T16:24:57.477Z,98164.81
2022-07-26T16:27:26.510Z,98163.00
2022-07-26T16:29:55.821Z,98160.47
2022-07-26T16:32:26.415Z,98161.47
2022-07-26T16:34:55.541Z,98155.59
2022-07-26T16:37:25.393Z,98147.69
2022-07-26T16:39:55.870Z,98153.78
2022-07-26T16:42:25.033Z,98155.59
2022-07-26T16:44:54.130Z,98150.97
2022-07-26T16:47:23.417Z,98150.97
2022-07-26T16:49:53.733Z,98158.19
2022-07-26T16:52:23.047Z,98151.75
2022-07-26T16:54:52.105Z,98156.47
2022-07-26T16:57:21.014Z,98152.72
2022-07-26T16:59:49.931Z,98151.69
2022-07-26T17:02:19.091Z,98160.28
2022-07-26T17:04:48.060Z,98165.50
2022-07-26T17:07:26.507Z,98163.56
2022-07-26T17:09:55.916Z,98168.59
2022-07-26T17:12:25.133Z,98164.66
2022-07-26T17:14:54.220Z,98163.09
2022-07-26T17:17:23.314Z,98173.25
2022-07-26T17:19:52.523Z,98168.59
2022-07-26T17:22:23.551Z,98180.09
2022-07-26T17:24:52.548Z,98186.25
2022-07-26T17:27:21.629Z,98186.25
2022-07-26T17:29:52.134Z,98188.75
2022-07-26T17:32:21.089Z,98194.16
2022-07-26T17:34:50.291Z,98195.06
2022-07-26T17:37:19.669Z,98203.38
2022-07-26T17:39:54.005Z,98199.47
2022-07-26T17:42:26.344Z,98201.59
2022-07-26T17:44:55.952Z,98205.28
2022-07-26T17:47:28.822Z,98204.44
2022-07-26T17:52:53.120Z,98202.56
2022-07-26T17:55:24.340Z,98209.91
2022-07-26T17:57:53.481Z,98211.06
2022-07-26T18:00:28.708Z,98208.88
2022-07-26T18:02:59.123Z,98216.69
2022-07-26T18:05:34.967Z,98213.97
2022-07-26T18:08:05.575Z,98210.59
2022-07-26T18:10:36.018Z,98214.19
2022-07-26T18:13:05.023Z,98212.31
2022-07-26T18:15:35.079Z,98209.72
2022-07-26T18:18:04.209Z,98208.06
2022-07-26T18:20:33.256Z,98212.47
2022-07-26T18:23:03.869Z,98208.13
2022-07-26T18:25:32.926Z,98212.47
2022-07-26T18:28:06.842Z,98216.06
2022-07-26T18:30:36.439Z,98221.22
2022-07-26T18:33:06.559Z,98221.22
2022-07-26T18:35:35.859Z,98220.72
2022-07-26T18:38:04.964Z,98219.19
2022-07-26T18:40:34.473Z,98212.06
2022-07-26T18:43:05.274Z,98213.72
2022-07-26T18:45:34.083Z,98211.41
2022-07-26T18:48:03.065Z,98210.81
2022-07-26T18:50:32.589Z,98207.56
2022-07-26T18:53:01.621Z,98208.50
2022-07-26T18:55:30.584Z,98216.28
2022-07-26T18:58:04.662Z,98209.16
2022-07-26T19:00:37.134Z,98215.81
2022-07-26T19:03:06.184Z,98214.44
2022-07-26T19:05:40.604Z,98211.50
2022-07-26T19:08:09.706Z,98211.38
2022-07-26T19:10:38.835Z,98221.19
2022-07-26T19:13:08.163Z,98216.38
2022-07-26T19:15:38.647Z,98222.84
2022-07-26T19:18:12.301Z,98217.81
2022-07-26T19:20:41.828Z,98217.13
2022-07-26T19:23:11.665Z,98225.03
2022-07-26T19:25:41.817Z,98229.09
2022-07-26T19:28:10.929Z,98221.66
2022-07-26T19:30:41.458Z,98229.09
2022-07-26T19:33:11.237Z,98227.72
2022-07-26T19:35:40.225Z,98231.34
2022-07-26T19:38:09.600Z,98226.41
2022-07-26T19:40:38.767Z,98221.88
2022-07-26T19:43:08.208Z,98224.06
2022-07-26T19:45:37.307Z,98230.91
2022-07-26T19:48:08.277Z,98229.94
2022-07-26T19:50:37.339Z,98218.19
2022-07-26T19:53:06.130Z,98224.41
2022-07-26T19:55:38.382Z,98215.28
2022-07-26T19:58:07.302Z,98209.09
2022-07-26T20:00:36.310Z,98214.06
2022-07-26T20:03:05.589Z,98209.72
2022-07-26T20:05:36.873Z,98212.81
2022-07-26T20:08:06.114Z,98210.22
2022-07-26T20:10:35.099Z,98213.06
2022-07-26T20:13:04.241Z,98203.88
2022-07-26T20:15:33.187Z,98202.81
2022-07-26T20:18:02.218Z,98200.31
2022-07-26T20:20:31.111Z,98203.59
2022-07-26T20:23:02.487Z,98195.50
2022-07-26T20:25:32.264Z,98186.72
2022-07-26T20:28:01.766Z,98186.34
2022-07-26T20:30:30.968Z,98192.59
2022-07-26T20:32:59.822Z,98198.50
2022-07-26T20:35:29.402Z,98200.69
2022-07-26T20:37:58.186Z,98196.94
2022-07-26T20:40:29.084Z,98193.22
2022-07-26T20:42:58.765Z,98193.84
2022-07-26T20:45:27.681Z,98196.22
2022-07-26T20:47:57.023Z,98201.47
2022-07-26T20:50:25.889Z,98190.50
2022-07-26T20:52:55.046Z,98191.25
2022-07-26T20:55:24.240Z,98194.69
2022-07-26T20:57:54.483Z,98201.66
2022-07-26T21:00:23.623Z,98199.47
2022-07-26T21:02:53.953Z,98199.03
2022-07-26T21:05:23.009Z,98201.03
2022-07-26T21:07:58.730Z,98204.47
2022-07-26T21:10:29.325Z,98212.53
2022-07-26T21:13:01.212Z,98208.66
2022-07-26T21:15:30.618Z,98203.72
2022-07-26T21:18:00.660Z,98205.44
2022-07-26T21:20:29.462Z,98204.81
2022-07-26T21:23:12.776Z,98204.22
2022-07-26T21:25:45.262Z,98204.69
2022-07-26T21:28:15.135Z,98214.56
2022-07-26T21:30:43.855Z,98210.09
2022-07-26T21:33:12.387Z,98211.78
2022-07-26T21:35:42.167Z,98214.72
2022-07-26T21:38:11.406Z,98212.44
2022-07-26T21:40:40.134Z,98215.53
2022-07-26T21:43:08.800Z,98212.91
2022-07-26T21:45:38.863Z,98218.47
2022-07-26T21:48:08.145Z,98216.13
2022-07-26T21:50:36.566Z,98216.59
2022-07-26T21:53:05.258Z,98204.97
2022-07-26T21:55:33.862Z,98209.94
2022-07-26T21:58:02.186Z,98210.72
2022-07-26T22:00:30.716Z,98218.44
2022-07-26T22:03:00.886Z,98214.75
2022-07-26T22:05:42.732Z,98214.28
2022-07-26T22:08:14.416Z,98222.19
2022-07-26T22:10:45.955Z,98219.56
2022-07-26T22:13:15.555Z,98217.22
2022-07-26T22:15:45.395Z,98218.00
2022-07-26T22:18:16.175Z,98224.63
2022-07-26T22:20:47.624Z,98226.66
2022-07-26T22:23:17.878Z,98223.25
2022-07-26T22:25:47.077Z,98220.63
2022-07-26T22:28:18.456Z,98215.19
2022-07-26T22:30:47.925Z,98216.00
2022-07-26T22:33:18.528Z,98218.16
2022-07-26T22:35:47.297Z,98213.66
2022-07-26T22:38:16.460Z,98204.06
2022-07-26T22:40:46.452Z,98209.16
2022-07-26T22:43:15.477Z,98212.13
2022-07-26T22:45:44.514Z,98211.31
2022-07-26T22:48:13.568Z,98208.22
2022-07-26T22:50:44.355Z,98213.34
2022-07-26T22:53:13.032Z,98204.22
2022-07-26T22:55:42.256Z,98204.53
2022-07-26T22:58:11.123Z,98208.53
2022-07-26T23:00:39.763Z,98213.47
2022-07-26T23:03:11.828Z,98203.28
2022-07-26T23:05:54.925Z,98206.38
2022-07-26T23:11:12.263Z,98206.78
2022-07-26T23:13:40.995Z,98210.97
2022-07-26T23:16:09.633Z,98208.31
2022-07-26T23:18:38.124Z,98212.19
2022-07-26T23:21:08.137Z,98213.75
2022-07-26T23:23:36.857Z,98215.13
2022-07-26T23:26:05.810Z,98219.91
2022-07-26T23:28:37.328Z,98213.88
2022-07-26T23:31:09.203Z,98211.88
2022-07-26T23:33:53.076Z,98203.84
2022-07-26T23:36:29.262Z,98204.44
2022-07-26T23:38:59.470Z,98206.59
2022-07-26T23:41:28.772Z,98212.47
2022-07-26T23:43:58.130Z,98210.91
2022-07-26T23:46:27.565Z,98209.34
2022-07-26T23:48:58.655Z,98210.28
2022-07-26T23:51:28.925Z,98217.56
2022-07-26T23:53:57.817Z,98208.72
2022-07-26T23:56:26.593Z,98204.53
2022-07-26T23:58:55.353Z,98207.78
